Time;durP1;ratioP1;P1;durP2;ratioP2;P2;SDS_P1;SDS_P2;PMS_P1;PMS_P2;Temp;Humidity;BMP_temperature;BMP_pressure;BME280_temperature;BME280_humidity;BME280_pressure;Samples;Min_cycle;Max_cycle;Signal;HPM_P1;HPM_P2
2021/10/12 00:01:33;;;;;;;46.37;27.07;;;9.50;99.90;;;;;;5051174;28;20393;-56
2021/10/12 00:03:59;;;;;;;48.92;26.80;;;9.50;99.90;;;;;;5051617;28;20392;-56
2021/10/12 00:06:24;;;;;;;43.43;24.90;;;9.50;99.90;;;;;;5050839;28;20374;-56
2021/10/12 00:08:50;;;;;;;43.63;24.48;;;9.40;99.90;;;;;;5051336;28;20413;-56
2021/10/12 00:11:16;;;;;;;45.87;25.77;;;9.40;99.90;;;;;;5050580;28;20416;-57
2021/10/12 00:13:42;;;;;;;45.63;27.27;;;9.40;99.90;;;;;;5051197;28;20381;-54
2021/10/12 00:16:08;;;;;;;42.17;25.65;;;9.40;99.90;;;;;;5050238;28;20860;-56
2021/10/12 00:18:33;;;;;;;46.83;26.17;;;9.50;99.90;;;;;;5050910;28;20522;-54
2021/10/12 00:20:59;;;;;;;43.75;25.98;;;9.50;99.90;;;;;;5051015;28;20473;-54
2021/10/12 00:23:24;;;;;;;42.00;25.13;;;9.60;99.90;;;;;;5050355;28;20459;-54
2021/10/12 00:25:50;;;;;;;44.50;24.40;;;9.60;99.90;;;;;;5039930;28;20389;-54
2021/10/12 00:28:16;;;;;;;40.85;23.10;;;9.60;99.90;;;;;;5044305;28;20472;-57
2021/10/12 00:30:41;;;;;;;39.67;23.50;;;10.50;99.90;;;;;;5030492;28;20402;-56
2021/10/12 00:33:07;;;;;;;39.85;22.33;;;9.60;99.90;;;;;;5028624;28;20379;-57
2021/10/12 00:35:33;;;;;;;43.87;24.17;;;9.50;99.90;;;;;;5031211;28;20754;-57
2021/10/12 00:37:58;;;;;;;40.45;23.88;;;9.50;99.90;;;;;;5030616;28;20486;-55
2021/10/12 00:40:24;;;;;;;42.93;24.50;;;9.50;99.90;;;;;;5029684;28;20415;-55
2021/10/12 00:42:50;;;;;;;40.97;23.10;;;9.60;99.90;;;;;;5030875;28;20384;-54
2021/10/12 00:45:17;;;;;;;41.25;22.90;;;9.60;99.90;;;;;;5029858;28;20379;-54
2021/10/12 00:48:04;;;;;;;40.65;23.80;;;9.60;99.90;;;;;;5030687;28;20386;-56
2021/10/12 00:50:33;;;;;;;44.13;24.67;;;9.70;99.90;;;;;;5030280;28;20390;-57
2021/10/12 00:52:59;;;;;;;43.60;23.92;;;9.70;99.90;;;;;;5030822;28;20429;-54
2021/10/12 00:55:24;;;;;;;39.20;23.33;;;9.70;99.90;;;;;;5029918;28;20379;-54
2021/10/12 00:57:52;;;;;;;39.33;23.50;;;9.60;99.90;;;;;;5030257;28;20855;-54
2021/10/12 01:00:18;;;;;;;41.60;23.50;;;9.60;99.90;;;;;;5029838;28;20417;-54
2021/10/12 01:02:44;;;;;;;40.13;22.98;;;9.50;99.90;;;;;;5030448;28;20416;-55
2021/10/12 01:05:10;;;;;;;41.08;22.73;;;9.50;99.90;;;;;;5029901;28;20473;-55
2021/10/12 01:07:36;;;;;;;41.20;22.58;;;9.40;99.90;;;;;;5030033;28;20419;-57
2021/10/12 01:10:04;;;;;;;38.20;23.23;;;9.40;99.90;;;;;;5030113;28;20391;-54
2021/10/12 01:12:30;;;;;;;41.50;23.10;;;9.40;99.90;;;;;;5030223;28;20386;-54
2021/10/12 01:14:56;;;;;;;42.42;23.30;;;9.40;99.90;;;;;;5030436;28;20387;-54
2021/10/12 01:17:22;;;;;;;44.28;23.42;;;9.50;99.90;;;;;;5029337;28;20445;-54
2021/10/12 01:19:48;;;;;;;43.83;24.63;;;9.60;99.90;;;;;;5030087;28;20411;-54
2021/10/12 01:22:14;;;;;;;44.97;24.10;;;9.60;99.90;;;;;;5029350;28;20906;-54
2021/10/12 01:24:39;;;;;;;47.58;25.58;;;9.70;99.90;;;;;;5045539;28;20380;-57
2021/10/12 01:27:06;;;;;;;42.13;23.70;;;9.70;99.90;;;;;;5029650;28;20862;-60
2021/10/12 01:29:32;;;;;;;42.08;24.83;;;9.80;99.90;;;;;;5029867;28;20473;-56
2021/10/12 01:31:58;;;;;;;43.88;23.88;;;9.80;99.90;;;;;;5061985;28;20772;-56
2021/10/12 01:34:24;;;;;;;45.87;24.00;;;9.90;99.90;;;;;;5029229;28;20372;-56
2021/10/12 01:36:50;;;;;;;45.13;23.45;;;10.00;99.90;;;;;;5029139;28;20395;-54
2021/10/12 01:39:17;;;;;;;42.87;23.57;;;10.00;99.90;;;;;;5028734;28;20417;-58
2021/10/12 01:41:43;;;;;;;40.53;22.80;;;10.10;99.90;;;;;;5029927;28;20383;-57
2021/10/12 01:44:13;;;;;;;41.75;22.95;;;10.20;99.90;;;;;;5029565;28;20387;-55
2021/10/12 01:46:40;;;;;;;44.75;23.60;;;10.20;99.90;;;;;;5029640;28;20448;-54
2021/10/12 01:49:06;;;;;;;46.40;24.57;;;10.20;99.90;;;;;;5029548;28;20470;-59
2021/10/12 01:51:33;;;;;;;42.15;23.20;;;10.20;99.90;;;;;;5029680;28;20468;-57
2021/10/12 01:54:02;;;;;;;44.90;24.48;;;10.20;99.90;;;;;;5029463;28;20393;-57
2021/10/12 01:56:29;;;;;;;44.67;23.50;;;10.20;99.90;;;;;;5028990;28;20935;-56
2021/10/12 01:58:55;;;;;;;46.30;24.70;;;10.20;99.90;;;;;;5029680;28;20443;-57
2021/10/12 02:01:22;;;;;;;45.97;24.33;;;10.20;99.90;;;;;;5028881;28;20872;-56
2021/10/12 02:03:48;;;;;;;45.17;23.40;;;10.20;99.90;;;;;;5029650;28;20390;-57
2021/10/12 02:06:14;;;;;;;43.53;23.27;;;10.10;99.90;;;;;;5028682;28;20374;-56
2021/10/12 02:08:40;;;;;;;46.22;23.85;;;10.00;99.90;;;;;;5029107;28;20407;-56
2021/10/12 02:11:06;;;;;;;46.30;23.80;;;10.00;99.90;;;;;;5029434;28;20444;-61
2021/10/12 02:13:32;;;;;;;44.80;23.13;;;10.10;99.90;;;;;;5029398;28;20409;-56
2021/10/12 02:15:57;;;;;;;44.85;23.40;;;10.10;99.90;;;;;;5032942;28;20395;-56
2021/10/12 02:18:23;;;;;;;40.37;21.80;;;10.20;99.90;;;;;;5045235;28;20791;-56
2021/10/12 02:20:49;;;;;;;43.67;23.13;;;10.20;99.90;;;;;;5029260;28;20410;-56
2021/10/12 02:23:16;;;;;;;43.60;23.00;;;10.40;99.90;;;;;;5034796;28;20389;-57
2021/10/12 02:25:41;;;;;;;40.90;22.98;;;10.40;99.90;;;;;;5048907;28;20510;-56
2021/10/12 02:28:07;;;;;;;42.65;22.42;;;10.40;99.90;;;;;;5048756;28;20834;-58
2021/10/12 02:30:33;;;;;;;41.97;21.53;;;10.50;99.90;;;;;;5047024;28;20407;-55
2021/10/12 02:32:58;;;;;;;38.97;22.03;;;10.50;99.90;;;;;;5049087;28;20413;-54
2021/10/12 02:35:24;;;;;;;42.95;23.27;;;10.50;99.90;;;;;;5048347;28;20851;-54
2021/10/12 02:37:49;;;;;;;39.87;21.90;;;10.50;99.90;;;;;;5048713;28;20741;-54
2021/10/12 02:40:15;;;;;;;46.80;23.27;;;10.50;99.90;;;;;;5047772;28;20449;-54
2021/10/12 02:42:41;;;;;;;44.30;24.70;;;10.50;99.90;;;;;;5049058;28;20389;-56
2021/10/12 02:45:07;;;;;;;43.40;23.45;;;10.40;99.90;;;;;;5048310;28;20373;-61
2021/10/12 02:47:34;;;;;;;44.10;22.85;;;10.30;99.90;;;;;;5047276;28;20488;-56
2021/10/12 02:50:03;;;;;;;40.45;23.02;;;10.20;99.90;;;;;;5048849;28;21097;-57
2021/10/12 02:52:29;;;;;;;42.63;23.73;;;10.10;99.90;;;;;;5046093;28;20455;-56
2021/10/12 02:54:56;;;;;;;43.72;25.00;;;10.10;99.90;;;;;;5053005;28;20415;-56
2021/10/12 02:57:22;;;;;;;39.40;22.88;;;10.10;99.90;;;;;;5051909;28;20435;-56
2021/10/12 02:59:48;;;;;;;43.25;23.05;;;10.20;99.90;;;;;;5052601;28;20405;-56
2021/10/12 03:02:14;;;;;;;44.90;24.50;;;10.20;99.90;;;;;;5052142;28;20452;-57
2021/10/12 03:04:39;;;;;;;46.30;23.05;;;10.20;99.90;;;;;;5052417;28;20485;-56
2021/10/12 03:07:05;;;;;;;44.67;22.73;;;10.20;99.90;;;;;;5051927;28;20868;-56
2021/10/12 03:09:30;;;;;;;42.80;22.20;;;10.20;99.90;;;;;;5051596;28;20389;-56
2021/10/12 03:11:56;;;;;;;40.88;22.13;;;10.20;99.90;;;;;;5052422;28;20389;-56
2021/10/12 03:14:22;;;;;;;41.10;22.30;;;10.20;99.90;;;;;;5051360;28;20388;-56
2021/10/12 03:16:47;;;;;;;41.63;22.45;;;10.20;99.90;;;;;;5052392;28;20944;-56
2021/10/12 03:19:14;;;;;;;39.15;22.38;;;10.30;99.90;;;;;;5051178;28;20512;-56
2021/10/12 03:21:49;;;;;;;39.22;21.58;;;10.40;99.90;;;;;;5052173;28;20488;-56
2021/10/12 03:24:15;;;;;;;38.65;22.05;;;10.40;99.90;;;;;;5047463;28;20470;-56
2021/10/12 03:26:41;;;;;;;41.50;21.80;;;10.40;99.90;;;;;;5050977;28;20390;-56
2021/10/12 03:29:06;;;;;;;39.93;21.50;;;10.50;99.90;;;;;;5051584;28;20393;-56
2021/10/12 03:31:32;;;;;;;40.22;21.55;;;10.50;99.90;;;;;;5051074;28;20852;-56
2021/10/12 03:33:57;;;;;;;34.67;20.73;;;10.50;99.90;;;;;;5051773;28;20737;-57
2021/10/12 03:36:25;;;;;;;33.92;20.02;;;10.50;99.90;;;;;;5051152;28;20390;-56
2021/10/12 03:38:52;;;;;;;41.95;21.67;;;10.50;99.90;;;;;;5050684;28;20413;-56
2021/10/12 03:41:17;;;;;;;41.83;22.23;;;10.50;99.90;;;;;;5049616;28;20398;-56
2021/10/12 03:43:44;;;;;;;40.05;21.13;;;10.40;99.90;;;;;;5051629;28;20388;-56
2021/10/12 03:46:09;;;;;;;38.00;20.35;;;10.50;99.90;;;;;;5051046;28;20390;-62
2021/10/12 03:48:35;;;;;;;39.88;20.05;;;10.50;99.90;;;;;;5051422;28;20843;-56
2021/10/12 03:51:01;;;;;;;39.40;20.10;;;10.60;99.90;;;;;;5051421;28;20437;-56
2021/10/12 03:53:27;;;;;;;40.37;21.30;;;10.60;99.90;;;;;;5050684;28;21224;-56
2021/10/12 03:55:52;;;;;;;37.70;20.80;;;10.60;99.90;;;;;;5051287;28;20523;-56
2021/10/12 03:58:18;;;;;;;38.50;20.40;;;10.60;99.90;;;;;;5050431;28;20953;-56
2021/10/12 04:00:43;;;;;;;38.70;20.65;;;10.70;99.90;;;;;;5050194;28;20455;-56
2021/10/12 04:03:09;;;;;;;34.70;20.27;;;10.70;99.90;;;;;;5051080;28;20705;-60
2021/10/12 04:05:35;;;;;;;37.13;18.90;;;10.70;99.90;;;;;;5045541;28;20412;-54
2021/10/12 04:08:00;;;;;;;35.50;19.65;;;10.60;99.90;;;;;;5034084;28;20439;-55
2021/10/12 04:10:26;;;;;;;37.73;20.93;;;10.70;99.90;;;;;;5049728;28;20455;-55
2021/10/12 04:12:51;;;;;;;36.63;20.30;;;10.70;99.90;;;;;;5051400;28;20447;-55
2021/10/12 04:15:17;;;;;;;31.70;19.90;;;10.80;99.90;;;;;;5050016;28;20389;-55
2021/10/12 04:17:43;;;;;;;36.20;19.37;;;10.80;99.90;;;;;;5051401;28;20384;-55
2021/10/12 04:20:09;;;;;;;34.67;19.42;;;10.70;99.90;;;;;;5050608;28;20432;-60
2021/10/12 04:22:35;;;;;;;37.92;20.75;;;10.60;99.90;;;;;;5049578;28;20444;-55
2021/10/12 04:25:01;;;;;;;37.53;21.05;;;10.60;99.90;;;;;;5051077;28;20789;-55
2021/10/12 04:27:27;;;;;;;40.28;20.60;;;10.60;99.90;;;;;;5050434;28;20478;-55
2021/10/12 04:29:53;;;;;;;41.00;20.63;;;10.50;99.90;;;;;;5048519;28;20390;-55
2021/10/12 04:32:18;;;;;;;41.25;21.20;;;10.50;99.90;;;;;;5049848;28;20408;-55
2021/10/12 04:34:45;;;;;;;37.87;21.50;;;10.50;99.90;;;;;;5056807;28;20391;-54
2021/10/12 04:37:10;;;;;;;38.47;21.90;;;10.60;99.90;;;;;;5053887;28;20459;-59
2021/10/12 04:39:36;;;;;;;41.80;21.97;;;10.60;99.90;;;;;;5053444;28;20422;-55
2021/10/12 04:42:04;;;;;;;38.50;21.05;;;10.60;99.90;;;;;;5067364;28;20391;-54
2021/10/12 04:44:31;;;;;;;40.60;21.15;;;10.60;99.90;;;;;;5058640;28;20466;-55
2021/10/12 04:46:57;;;;;;;38.50;21.27;;;10.60;99.90;;;;;;5049249;28;20386;-54
2021/10/12 04:49:23;;;;;;;41.77;21.73;;;10.60;99.90;;;;;;5048118;28;20390;-55
2021/10/12 04:51:48;;;;;;;39.45;20.67;;;10.60;99.90;;;;;;5035726;28;20523;-56
2021/10/12 04:54:14;;;;;;;39.33;20.67;;;10.70;99.90;;;;;;5044238;28;20401;-55
2021/10/12 04:56:40;;;;;;;38.00;20.83;;;10.60;99.90;;;;;;5036096;28;20477;-55
2021/10/12 04:59:05;;;;;;;39.97;20.83;;;10.60;99.90;;;;;;5030763;28;20498;-55
2021/10/12 05:01:31;;;;;;;42.30;20.70;;;10.70;99.90;;;;;;5033847;28;20958;-55
2021/10/12 05:03:56;;;;;;;35.35;20.05;;;10.70;99.90;;;;;;5035642;28;20402;-54
2021/10/12 05:06:22;;;;;;;39.40;21.60;;;10.80;99.90;;;;;;5035327;28;20410;-55
2021/10/12 05:08:48;;;;;;;40.65;22.27;;;10.80;99.90;;;;;;5037386;28;20425;-54
2021/10/12 05:11:14;;;;;;;38.43;21.30;;;10.80;99.90;;;;;;5030588;28;20870;-58
2021/10/12 05:13:39;;;;;;;37.85;21.35;;;10.70;99.90;;;;;;5037062;28;20409;-56
2021/10/12 05:16:11;;;;;;;46.20;23.73;;;10.80;99.90;;;;;;5041784;28;20825;-55
2021/10/12 05:18:39;;;;;;;41.60;22.77;;;10.80;99.90;;;;;;5034157;28;20385;-54
2021/10/12 05:21:05;;;;;;;41.80;23.15;;;10.90;99.90;;;;;;5049220;28;20491;-55
2021/10/12 05:23:30;;;;;;;42.83;23.85;;;10.80;99.90;;;;;;5048679;28;20604;-54
2021/10/12 05:25:58;;;;;;;39.53;22.60;;;10.80;99.90;;;;;;5049602;28;20377;-54
2021/10/12 05:28:24;;;;;;;46.40;23.52;;;10.60;99.90;;;;;;5048997;28;20411;-54
2021/10/12 05:30:50;;;;;;;44.50;24.20;;;10.60;99.90;;;;;;5048822;28;20413;-54
2021/10/12 05:33:18;;;;;;;46.73;24.40;;;10.70;99.90;;;;;;5058917;28;20462;-54
2021/10/12 05:35:46;;;;;;;45.58;25.02;;;10.70;99.90;;;;;;5049358;28;20456;-54
2021/10/12 05:38:13;;;;;;;44.42;22.95;;;10.60;99.90;;;;;;5045181;28;20406;-58
2021/10/12 05:40:38;;;;;;;48.72;24.90;;;10.40;99.90;;;;;;5041916;28;20459;-54
2021/10/12 05:43:04;;;;;;;52.05;24.73;;;10.20;99.90;;;;;;5040235;28;20766;-54
2021/10/12 05:45:30;;;;;;;53.80;26.00;;;10.10;99.90;;;;;;5061118;28;20399;-54
2021/10/12 05:47:55;;;;;;;48.72;27.25;;;10.10;99.90;;;;;;5040365;28;20417;-54
2021/10/12 05:50:21;;;;;;;52.93;25.80;;;10.00;99.90;;;;;;5040139;28;20411;-56
2021/10/12 05:52:56;;;;;;;52.97;25.53;;;9.90;99.90;;;;;;5048872;28;20420;-56
2021/10/12 05:55:31;;;;;;;49.08;24.48;;;9.90;99.90;;;;;;5038616;28;20395;-54
2021/10/12 05:58:12;;;;;;;47.50;22.08;;;9.90;99.90;;;;;;5045825;28;21108;-57
2021/10/12 06:00:37;;;;;;;46.23;23.30;;;10.00;99.90;;;;;;5048612;28;20409;-54
2021/10/12 06:03:03;;;;;;;43.90;24.33;;;10.20;99.90;;;;;;5039651;28;20781;-54
2021/10/12 06:05:29;;;;;;;38.43;22.03;;;10.30;99.90;;;;;;5032271;28;20380;-55
2021/10/12 06:07:55;;;;;;;43.50;23.08;;;10.50;99.90;;;;;;5048160;28;20492;-55
2021/10/12 06:10:21;;;;;;;42.55;22.13;;;10.60;99.90;;;;;;5048112;28;20409;-55
2021/10/12 06:12:47;;;;;;;44.00;23.25;;;10.70;99.90;;;;;;5048966;28;20397;-54
2021/10/12 06:15:13;;;;;;;47.27;22.23;;;10.80;99.90;;;;;;5048323;28;20390;-58
2021/10/12 06:17:38;;;;;;;43.33;21.70;;;10.80;99.90;;;;;;5049064;28;20382;-55
2021/10/12 06:20:05;;;;;;;42.57;21.90;;;10.90;99.90;;;;;;5048451;28;20402;-55
2021/10/12 06:22:30;;;;;;;41.40;21.40;;;10.90;99.90;;;;;;5043341;28;20405;-55
2021/10/12 06:24:56;;;;;;;43.83;20.98;;;10.80;99.90;;;;;;5049157;28;20435;-55
2021/10/12 06:27:21;;;;;;;38.97;21.10;;;10.70;99.90;;;;;;5047732;28;20749;-55
2021/10/12 06:29:47;;;;;;;43.30;20.60;;;10.70;99.90;;;;;;5048602;28;20825;-55
2021/10/12 06:32:13;;;;;;;36.80;19.00;;;10.70;99.90;;;;;;5041904;28;20478;-56
2021/10/12 06:34:38;;;;;;;43.80;22.63;;;10.70;99.90;;;;;;5040138;28;20382;-55
2021/10/12 06:37:04;;;;;;;36.77;19.27;;;10.70;99.90;;;;;;5029771;28;20850;-55
2021/10/12 06:39:30;;;;;;;38.08;20.02;;;10.90;99.90;;;;;;5028294;28;20426;-55
2021/10/12 06:41:56;;;;;;;38.60;20.10;;;10.80;99.90;;;;;;5028966;28;20387;-55
2021/10/12 06:44:21;;;;;;;37.20;20.00;;;10.80;99.90;;;;;;5028154;28;20428;-55
2021/10/12 06:46:47;;;;;;;34.40;20.30;;;10.90;99.90;;;;;;5029434;28;20414;-54
2021/10/12 06:49:13;;;;;;;36.50;18.80;;;10.90;99.90;;;;;;5028283;28;20384;-54
2021/10/12 06:51:38;;;;;;;36.75;19.70;;;10.90;99.90;;;;;;5028790;28;20391;-55
2021/10/12 06:54:04;;;;;;;38.13;20.53;;;10.90;99.90;;;;;;5044291;28;20622;-54
2021/10/12 06:56:31;;;;;;;35.45;19.38;;;10.90;99.90;;;;;;5030065;28;21409;-56
2021/10/12 06:58:57;;;;;;;33.65;18.63;;;10.80;99.90;;;;;;5048459;28;20397;-57
2021/10/12 07:01:23;;;;;;;35.83;19.80;;;10.80;99.90;;;;;;5044747;28;20482;-56
2021/10/12 07:03:48;;;;;;;39.10;19.58;;;10.80;99.90;;;;;;5036535;28;20389;-56
2021/10/12 07:06:14;;;;;;;32.73;19.23;;;10.80;99.90;;;;;;5039647;28;20395;-60
2021/10/12 07:08:40;;;;;;;35.97;18.77;;;10.80;99.90;;;;;;5028975;28;20409;-57
2021/10/12 07:11:05;;;;;;;37.23;19.33;;;10.80;99.90;;;;;;5028474;28;20746;-56
2021/10/12 07:13:31;;;;;;;36.40;18.90;;;10.80;99.90;;;;;;5028079;28;21058;-57
2021/10/12 07:15:57;;;;;;;36.05;19.27;;;10.80;99.90;;;;;;5058275;28;20386;-56
2021/10/12 07:18:24;;;;;;;34.97;19.40;;;10.80;99.90;;;;;;5047591;28;20381;-56
2021/10/12 07:20:50;;;;;;;39.00;18.92;;;10.70;99.90;;;;;;5039230;28;20407;-57
2021/10/12 07:23:17;;;;;;;34.37;19.60;;;10.70;99.90;;;;;;5027967;28;20383;-58
2021/10/12 07:25:44;;;;;;;36.80;19.05;;;10.70;99.90;;;;;;5011299;28;20435;-56
2021/10/12 07:28:09;;;;;;;34.17;17.90;;;10.80;99.90;;;;;;5033183;28;20397;-56
2021/10/12 07:30:35;;;;;;;35.75;20.05;;;10.90;99.90;;;;;;5029278;28;20670;-56
2021/10/12 07:33:00;;;;;;;33.90;18.43;;;10.90;99.90;;;;;;5032119;28;20448;-56
2021/10/12 07:35:26;;;;;;;35.30;18.60;;;11.00;99.90;;;;;;5049722;28;20385;-55
2021/10/12 07:37:52;;;;;;;36.37;17.63;;;11.00;99.90;;;;;;5052665;28;20930;-56
2021/10/12 07:40:17;;;;;;;31.37;17.10;;;11.00;99.90;;;;;;5050777;28;20471;-54
2021/10/12 07:42:43;;;;;;;30.58;17.77;;;11.20;99.90;;;;;;5051605;28;20396;-54
2021/10/12 07:45:09;;;;;;;30.87;17.90;;;11.20;99.90;;;;;;5044034;28;20455;-54
2021/10/12 07:47:35;;;;;;;32.05;17.33;;;11.40;99.90;;;;;;5040513;28;20693;-54
2021/10/12 07:50:02;;;;;;;32.80;17.45;;;11.50;99.90;;;;;;5046618;28;20924;-55
2021/10/12 07:52:30;;;;;;;30.90;18.00;;;11.50;99.90;;;;;;5050096;28;20378;-54
2021/10/12 07:57:30;;;;;;;28.93;17.93;;;11.70;99.90;;;;;;5045934;28;20412;-54
2021/10/12 07:59:56;;;;;;;34.30;17.27;;;11.70;99.90;;;;;;5047591;28;20424;-54
2021/10/12 08:02:22;;;;;;;33.70;17.47;;;11.70;99.90;;;;;;5049726;28;20461;-54
2021/10/12 08:04:48;;;;;;;33.55;17.83;;;12.60;99.90;;;;;;5048326;28;20439;-54
2021/10/12 08:07:13;;;;;;;31.93;17.50;;;11.80;99.90;;;;;;5047906;28;20483;-59
2021/10/12 08:09:39;;;;;;;30.27;17.40;;;11.70;99.90;;;;;;5052537;28;20502;-54
2021/10/12 08:12:06;;;;;;;33.20;17.40;;;11.70;99.90;;;;;;5061031;28;20741;-54
2021/10/12 08:14:35;;;;;;;31.80;18.42;;;11.70;99.90;;;;;;5058253;28;20380;-54
2021/10/12 08:17:01;;;;;;;30.60;16.98;;;11.80;99.90;;;;;;5049825;28;20405;-54
2021/10/12 08:19:27;;;;;;;32.80;16.87;;;11.90;99.90;;;;;;5044271;28;20904;-54
2021/10/12 08:21:53;;;;;;;32.78;17.77;;;11.90;99.90;;;;;;5050141;28;20382;-54
2021/10/12 08:24:20;;;;;;;34.33;17.15;;;11.80;99.90;;;;;;5048476;28;20389;-54
2021/10/12 08:26:50;;;;;;;32.70;18.65;;;11.80;99.90;;;;;;5045232;28;20397;-54
2021/10/12 08:29:16;;;;;;;31.35;17.45;;;11.90;99.90;;;;;;5048837;28;20408;-58
2021/10/12 08:31:41;;;;;;;33.92;17.83;;;11.80;99.90;;;;;;5065134;28;20397;-54
2021/10/12 08:34:07;;;;;;;28.60;16.60;;;11.70;99.90;;;;;;5050330;28;20374;-53
2021/10/12 08:36:33;;;;;;;36.72;18.17;;;11.60;99.90;;;;;;5049346;28;20404;-54
2021/10/12 08:38:58;;;;;;;29.73;16.43;;;11.70;99.90;;;;;;5050539;28;20472;-54
2021/10/12 08:41:34;;;;;;;35.90;17.10;;;11.60;99.90;;;;;;5049338;28;20734;-54
2021/10/12 08:43:59;;;;;;;26.35;14.77;;;11.80;99.90;;;;;;5050398;28;20443;-54
2021/10/12 08:46:26;;;;;;;24.67;13.43;;;12.10;99.90;;;;;;5049242;28;20738;-54
2021/10/12 08:48:59;;;;;;;27.13;13.90;;;12.30;99.90;;;;;;5049371;28;20374;-54
2021/10/12 08:51:25;;;;;;;24.23;13.73;;;12.70;99.90;;;;;;5040440;28;20404;-54
2021/10/12 08:53:51;;;;;;;25.08;14.73;;;13.00;99.90;;;;;;5050508;28;20416;-54
2021/10/12 08:56:16;;;;;;;26.92;13.55;;;13.30;99.90;;;;;;5049874;28;20377;-58
2021/10/12 08:58:42;;;;;;;22.73;13.03;;;13.70;99.90;;;;;;5032532;28;20381;-54
2021/10/12 09:01:17;;;;;;;20.42;12.05;;;14.60;99.90;;;;;;5044825;28;20821;-55
2021/10/12 09:04:01;;;;;;;21.10;11.48;;;14.40;99.90;;;;;;5050505;28;20421;-55
2021/10/12 09:06:33;;;;;;;20.10;10.80;;;14.40;99.90;;;;;;5049402;28;20393;-55
2021/10/12 09:09:15;;;;;;;18.30;11.02;;;13.90;99.90;;;;;;5049228;28;20416;-55
2021/10/12 09:11:42;;;;;;;20.48;11.45;;;13.50;99.90;;;;;;5049128;28;20418;-54
2021/10/12 09:14:08;;;;;;;17.20;10.10;;;13.60;99.90;;;;;;5050089;28;20455;-54
2021/10/12 09:16:38;;;;;;;21.40;11.52;;;13.40;99.90;;;;;;5081352;28;20443;-54
2021/10/12 09:19:05;;;;;;;18.63;11.02;;;13.20;99.90;;;;;;5049893;28;20382;-54
2021/10/12 09:21:38;;;;;;;18.50;10.57;;;13.10;99.90;;;;;;5049301;28;20385;-54
2021/10/12 09:24:15;;;;;;;21.15;10.20;;;12.80;99.90;;;;;;5048680;28;20803;-54
2021/10/12 09:26:59;;;;;;;19.97;10.67;;;12.70;99.90;;;;;;5049594;28;20488;-54
2021/10/12 09:29:37;;;;;;;19.17;11.45;;;12.60;99.90;;;;;;5047782;28;20428;-55
2021/10/12 09:32:07;;;;;;;21.75;12.32;;;12.50;99.90;;;;;;5049879;28;20450;-55
2021/10/12 09:34:37;;;;;;;21.30;12.43;;;12.40;99.90;;;;;;5049185;28;20381;-54
2021/10/12 09:37:04;;;;;;;24.15;14.07;;;12.30;99.90;;;;;;5049412;28;20402;-54
2021/10/12 09:39:45;;;;;;;22.95;13.30;;;12.00;99.90;;;;;;5048852;28;20409;-54
2021/10/12 09:42:16;;;;;;;26.98;15.02;;;11.90;99.90;;;;;;5049752;28;20814;-55
2021/10/12 09:44:53;;;;;;;22.17;13.73;;;11.80;99.90;;;;;;5049270;28;20377;-55
2021/10/12 09:47:19;;;;;;;23.40;14.52;;;11.80;99.90;;;;;;5049016;28;20748;-59
2021/10/12 09:49:46;;;;;;;24.95;14.50;;;11.70;99.90;;;;;;5081737;28;20741;-56
2021/10/12 09:52:17;;;;;;;26.88;14.80;;;11.70;99.90;;;;;;5049469;28;20459;-55
2021/10/12 09:54:55;;;;;;;28.20;15.20;;;11.80;99.90;;;;;;5049060;28;20378;-54
2021/10/12 09:57:23;;;;;;;23.00;13.50;;;12.00;99.90;;;;;;5047847;28;20796;-54
2021/10/12 09:59:50;;;;;;;21.45;12.57;;;12.10;99.90;;;;;;5048122;28;20403;-56
2021/10/12 10:02:20;;;;;;;19.52;11.80;;;12.20;99.90;;;;;;5049201;28;20744;-59
2021/10/12 10:04:47;;;;;;;21.05;12.00;;;12.20;99.90;;;;;;5049373;28;20393;-58
2021/10/12 10:07:29;;;;;;;21.80;12.18;;;12.30;99.90;;;;;;5049086;28;20393;-54
2021/10/12 10:09:57;;;;;;;18.38;11.55;;;12.50;99.90;;;;;;5049080;28;20398;-55
2021/10/12 10:12:25;;;;;;;18.15;9.80;;;12.50;99.90;;;;;;5048423;28;20431;-53
2021/10/12 10:14:51;;;;;;;17.88;9.85;;;12.40;99.90;;;;;;5049095;28;20388;-54
2021/10/12 10:17:17;;;;;;;21.37;10.97;;;12.50;99.90;;;;;;5048606;28;20394;-58
2021/10/12 10:19:44;;;;;;;17.33;10.70;;;12.50;99.90;;;;;;5049087;28;20406;-54
2021/10/12 10:22:33;;;;;;;19.33;10.83;;;12.50;99.90;;;;;;5048890;28;20396;-54
2021/10/12 10:25:00;;;;;;;18.48;10.50;;;12.60;99.90;;;;;;5048848;28;20405;-54
2021/10/12 10:27:43;;;;;;;15.30;10.40;;;12.70;99.90;;;;;;5047821;28;20377;-54
2021/10/12 10:30:22;;;;;;;21.08;10.75;;;12.70;99.90;;;;;;5047685;28;20384;-55
2021/10/12 10:33:08;;;;;;;16.48;10.23;;;12.70;99.90;;;;;;5049131;28;20377;-54
2021/10/12 10:35:40;;;;;;;17.75;9.45;;;12.70;99.90;;;;;;5047659;28;20404;-54
2021/10/12 10:38:29;;;;;;;18.42;9.60;;;12.70;99.90;;;;;;5048364;28;20401;-55
2021/10/12 10:41:04;;;;;;;19.03;10.70;;;12.60;99.90;;;;;;5043111;28;20432;-54
2021/10/12 10:43:48;;;;;;;19.90;10.95;;;12.60;99.90;;;;;;5047778;28;20420;-54
2021/10/12 10:46:32;;;;;;;17.43;10.30;;;12.70;99.90;;;;;;5047003;28;20446;-54
2021/10/12 10:49:19;;;;;;;19.42;10.52;;;12.70;99.90;;;;;;5048721;28;20480;-54
2021/10/12 10:51:56;;;;;;;17.50;9.80;;;12.60;99.90;;;;;;5048899;28;20426;-54
2021/10/12 10:54:42;;;;;;;20.75;9.40;;;12.50;99.90;;;;;;5047820;28;20485;-55
2021/10/12 10:57:19;;;;;;;16.65;8.98;;;12.50;99.90;;;;;;5047070;28;20732;-55
2021/10/12 10:59:45;;;;;;;16.95;9.57;;;12.60;99.90;;;;;;5048690;28;20520;-54
2021/10/12 11:02:26;;;;;;;17.70;7.90;;;12.80;99.90;;;;;;5080946;28;20868;-54
2021/10/12 11:04:55;;;;;;;11.82;6.60;;;12.80;99.90;;;;;;5048518;28;20388;-56
2021/10/12 11:07:24;;;;;;;12.50;6.50;;;12.90;99.90;;;;;;5047784;28;20500;-57
2021/10/12 11:09:50;;;;;;;11.70;6.03;;;12.80;99.90;;;;;;5051401;28;20396;-54
2021/10/12 11:12:25;;;;;;;16.77;6.80;;;12.90;99.90;;;;;;5084645;28;20385;-54
2021/10/12 11:14:52;;;;;;;15.23;6.85;;;12.90;99.90;;;;;;5052116;28;20473;-54
2021/10/12 11:17:18;;;;;;;15.20;7.28;;;13.00;99.90;;;;;;5052101;28;20401;-58
2021/10/12 11:19:53;;;;;;;14.70;7.25;;;13.30;99.90;;;;;;5051592;28;20455;-53
2021/10/12 11:22:18;;;;;;;13.30;6.35;;;13.50;99.90;;;;;;5051843;28;20440;-58
2021/10/12 11:24:45;;;;;;;11.80;6.30;;;13.40;99.90;;;;;;5051525;28;20465;-54
2021/10/12 11:27:11;;;;;;;17.73;8.40;;;13.30;99.90;;;;;;5051367;28;20472;-54
2021/10/12 11:29:37;;;;;;;14.60;7.22;;;13.20;99.90;;;;;;5051188;28;20397;-54
2021/10/12 11:32:03;;;;;;;11.38;6.20;;;13.50;99.90;;;;;;5051871;28;20385;-55
2021/10/12 11:34:30;;;;;;;13.38;6.10;;;13.30;99.90;;;;;;5049082;28;20397;-54
2021/10/12 11:37:06;;;;;;;14.70;7.60;;;13.20;99.90;;;;;;5051734;28;20482;-54
2021/10/12 11:39:33;;;;;;;13.30;6.60;;;13.00;99.90;;;;;;5051241;28;20896;-54
2021/10/12 11:42:04;;;;;;;14.13;6.70;;;12.90;99.90;;;;;;5051645;28;20496;-54
2021/10/12 11:44:30;;;;;;;15.07;7.20;;;12.90;99.90;;;;;;5050986;28;20781;-54
2021/10/12 11:47:03;;;;;;;14.07;6.93;;;12.80;99.90;;;;;;5051956;28;20540;-56
2021/10/12 11:49:37;;;;;;;18.60;7.68;;;12.80;99.90;;;;;;5050767;28;20433;-55
2021/10/12 11:52:07;;;;;;;11.57;6.60;;;13.10;99.90;;;;;;5051477;28;20752;-53
2021/10/12 11:54:33;;;;;;;14.60;6.23;;;13.50;99.90;;;;;;5050628;28;20378;-56
2021/10/12 11:56:59;;;;;;;14.85;6.40;;;14.10;99.90;;;;;;5044633;28;20934;-56
2021/10/12 11:59:34;;;;;;;13.30;6.50;;;14.60;99.90;;;;;;5030614;28;20498;-56
2021/10/12 12:02:01;;;;;;;10.38;5.70;;;14.50;99.90;;;;;;5031319;28;20477;-55
2021/10/12 12:04:35;;;;;;;12.83;5.60;;;14.50;99.90;;;;;;5030732;28;20387;-55
2021/10/12 12:07:06;;;;;;;10.97;5.23;;;14.80;99.90;;;;;;5030945;28;20510;-55
2021/10/12 12:09:33;;;;;;;10.43;5.40;;;14.60;99.90;;;;;;5030928;28;20395;-56
2021/10/12 12:12:02;;;;;;;10.40;5.13;;;14.60;99.90;;;;;;5030978;28;20453;-55
2021/10/12 12:14:28;;;;;;;12.32;5.60;;;14.10;99.90;;;;;;5030536;28;20386;-55
2021/10/12 12:17:13;;;;;;;10.07;5.40;;;14.30;99.90;;;;;;5031094;28;20383;-55
2021/10/12 12:19:43;;;;;;;13.07;5.90;;;14.20;99.90;;;;;;5030262;28;21027;-55
2021/10/12 12:22:14;;;;;;;12.13;6.75;;;13.90;99.90;;;;;;5030447;28;20473;-55
2021/10/12 12:25:10;;;;;;;13.73;6.63;;;13.50;99.90;;;;;;5030426;28;20474;-55
2021/10/12 12:27:56;;;;;;;14.10;7.00;;;13.20;99.90;;;;;;5029889;28;20441;-55
2021/10/12 12:30:39;;;;;;;14.20;7.30;;;13.30;99.90;;;;;;5062536;28;20427;-59
2021/10/12 12:33:06;;;;;;;16.40;7.45;;;13.00;99.90;;;;;;5030892;28;20405;-55
2021/10/12 12:35:46;;;;;;;14.48;7.38;;;12.80;99.90;;;;;;5030278;28;20406;-55
2021/10/12 12:38:25;;;;;;;12.27;6.97;;;12.70;99.90;;;;;;5062424;28;20436;-56